createdAt,value
2023-03-22T00:00:14.152Z,5.47
2023-03-22T00:02:59.195Z,5.10
2023-03-22T00:05:25.773Z,4.90
2023-03-22T00:07:54.713Z,5.28
2023-03-22T00:10:21.426Z,4.72
2023-03-22T00:12:47.947Z,3.92
2023-03-22T00:15:15.494Z,4.95
2023-03-22T00:17:42.139Z,4.22
2023-03-22T00:20:09.246Z,4.82
2023-03-22T00:22:36.098Z,5.47
2023-03-22T00:25:02.871Z,4.97
2023-03-22T00:27:29.432Z,5.35
2023-03-22T00:29:56.047Z,4.32
2023-03-22T00:32:22.601Z,6.03
2023-03-22T00:34:49.302Z,5.00
2023-03-22T00:37:18.701Z,4.90
2023-03-22T00:39:45.233Z,4.32
2023-03-22T00:42:11.877Z,5.63
2023-03-22T00:44:38.492Z,6.45
2023-03-22T00:47:05.227Z,5.25
2023-03-22T00:49:31.796Z,4.95
2023-03-22T00:51:58.420Z,6.10
2023-03-22T00:54:24.959Z,5.97
2023-03-22T00:56:51.522Z,5.00
2023-03-22T00:59:18.056Z,5.47
2023-03-22T01:01:44.568Z,4.95
2023-03-22T01:04:15.467Z,6.80
2023-03-22T01:06:42.082Z,5.45
2023-03-22T01:09:08.628Z,5.22
2023-03-22T01:11:35.275Z,5.97
2023-03-22T01:14:01.817Z,5.18
2023-03-22T01:16:28.436Z,4.57
2023-03-22T01:18:54.931Z,5.85
2023-03-22T01:21:21.433Z,5.25
2023-03-22T01:23:47.968Z,5.88
2023-03-22T01:26:14.735Z,5.15
2023-03-22T01:28:41.453Z,4.43
2023-03-22T01:31:08.074Z,5.13
2023-03-22T01:33:34.656Z,6.07
2023-03-22T01:36:01.227Z,5.10
2023-03-22T01:38:27.818Z,5.30
2023-03-22T01:40:54.412Z,5.72
2023-03-22T01:43:21.028Z,5.63
2023-03-22T01:45:51.997Z,5.65
2023-03-22T01:48:27.885Z,5.07
2023-03-22T01:51:14.581Z,5.20
2023-03-22T01:53:52.508Z,4.60
2023-03-22T01:56:21.077Z,5.38
2023-03-22T01:58:48.498Z,5.20
2023-03-22T02:01:18.108Z,6.30
2023-03-22T02:03:51.625Z,6.00
2023-03-22T02:06:19.024Z,7.07
2023-03-22T02:08:45.803Z,5.35
2023-03-22T02:11:15.571Z,4.85
2023-03-22T02:13:58.580Z,5.53
2023-03-22T02:16:29.108Z,5.03
2023-03-22T02:19:01.773Z,5.78
2023-03-22T02:21:40.474Z,5.53
2023-03-22T02:24:13.888Z,6.55
2023-03-22T02:27:04.972Z,5.95
2023-03-22T02:29:45.020Z,6.53
2023-03-22T02:32:11.624Z,6.05
2023-03-22T02:34:46.970Z,5.22
2023-03-22T02:37:33.768Z,5.97
2023-03-22T02:40:00.307Z,4.55
2023-03-22T02:42:51.857Z,7.40
2023-03-22T02:45:23.512Z,5.72
2023-03-22T02:48:16.315Z,6.00
2023-03-22T02:50:47.547Z,6.63
2023-03-22T02:53:23.230Z,6.18
2023-03-22T02:56:01.001Z,4.72
2023-03-22T02:58:35.885Z,5.88
2023-03-22T03:01:06.642Z,5.30
2023-03-22T03:03:37.697Z,5.93
2023-03-22T03:06:09.985Z,5.17
2023-03-22T03:08:37.461Z,5.07
2023-03-22T03:11:04.049Z,5.22
2023-03-22T03:13:30.918Z,6.90
2023-03-22T03:15:59.285Z,6.43
2023-03-22T03:18:32.407Z,4.90
2023-03-22T03:21:29.972Z,5.68
2023-03-22T03:24:16.710Z,4.93
2023-03-22T03:26:51.965Z,5.32
2023-03-22T03:29:52.293Z,5.22
2023-03-22T03:32:42.870Z,5.90
2023-03-22T03:35:22.303Z,5.45
2023-03-22T03:37:54.429Z,5.75
2023-03-22T03:42:52.394Z,5.20
2023-03-22T03:45:19.901Z,5.18
2023-03-22T03:47:48.386Z,6.40
2023-03-22T03:50:16.268Z,7.15
2023-03-22T03:52:43.038Z,5.38
2023-03-22T03:55:09.847Z,4.72
2023-03-22T03:57:36.365Z,5.80
2023-03-22T04:00:04.736Z,5.57
2023-03-22T04:02:31.321Z,5.03
2023-03-22T04:04:57.871Z,4.72
2023-03-22T04:07:24.575Z,6.00
2023-03-22T04:09:51.095Z,5.40
2023-03-22T04:12:17.654Z,5.57
2023-03-22T04:14:44.893Z,5.05
2023-03-22T04:17:11.442Z,5.00
2023-03-22T04:19:37.964Z,5.38
2023-03-22T04:22:04.598Z,6.38
2023-03-22T04:24:31.185Z,4.60
2023-03-22T04:26:57.732Z,5.60
2023-03-22T04:29:24.564Z,5.32
2023-03-22T04:31:53.092Z,5.07
2023-03-22T04:34:19.668Z,6.78
2023-03-22T04:36:47.016Z,5.05
2023-03-22T04:39:13.742Z,5.55
2023-03-22T04:41:40.273Z,4.93
2023-03-22T04:44:08.167Z,5.30
2023-03-22T04:46:36.408Z,4.80
2023-03-22T04:49:06.509Z,4.43
2023-03-22T04:51:33.167Z,7.13
2023-03-22T04:54:00.521Z,4.30
2023-03-22T04:56:27.288Z,5.45
2023-03-22T04:58:53.877Z,4.65
2023-03-22T05:01:21.931Z,3.78
2023-03-22T05:03:48.504Z,4.68
2023-03-22T05:06:15.282Z,5.22
2023-03-22T05:08:42.626Z,4.38
2023-03-22T05:11:12.569Z,5.18
2023-03-22T05:13:39.784Z,5.65
2023-03-22T05:16:07.520Z,5.07
2023-03-22T05:18:34.236Z,4.65
2023-03-22T05:21:03.780Z,4.13
2023-03-22T05:23:30.377Z,5.55
2023-03-22T05:25:58.290Z,6.57
2023-03-22T05:28:27.161Z,4.75
2023-03-22T05:30:56.598Z,5.10
2023-03-22T05:33:23.626Z,5.05
2023-03-22T05:35:51.195Z,3.78
2023-03-22T05:38:18.085Z,6.25
2023-03-22T05:40:45.275Z,6.38
2023-03-22T05:43:12.548Z,5.57
2023-03-22T05:45:39.153Z,5.63
2023-03-22T05:48:06.095Z,4.32
2023-03-22T05:50:32.720Z,4.43
2023-03-22T05:52:59.762Z,5.40
2023-03-22T05:55:26.777Z,4.63
2023-03-22T05:57:54.776Z,6.22
2023-03-22T06:00:21.889Z,4.60
2023-03-22T06:02:50.221Z,4.63
2023-03-22T06:05:17.588Z,5.20
2023-03-22T06:07:44.789Z,7.90
2023-03-22T06:10:13.174Z,4.68
2023-03-22T06:12:39.980Z,4.70
2023-03-22T06:15:07.481Z,5.95
2023-03-22T06:17:34.437Z,6.20
2023-03-22T06:20:00.968Z,5.50
2023-03-22T06:22:30.454Z,3.92
2023-03-22T06:24:57.001Z,5.93
2023-03-22T06:27:23.535Z,3.90
2023-03-22T06:29:51.096Z,4.63
2023-03-22T06:32:18.023Z,4.07
2023-03-22T06:34:44.661Z,5.70
2023-03-22T06:37:11.264Z,4.20
2023-03-22T06:39:38.103Z,4.60
2023-03-22T06:42:04.737Z,5.55
2023-03-22T06:44:31.321Z,6.22
2023-03-22T06:46:57.868Z,4.03
2023-03-22T06:49:24.434Z,4.28
2023-03-22T06:51:50.964Z,4.78
2023-03-22T06:54:17.577Z,5.07
2023-03-22T06:56:44.078Z,4.65
2023-03-22T06:59:10.675Z,6.85
2023-03-22T07:01:37.253Z,4.03
2023-03-22T07:04:04.115Z,4.15
2023-03-22T07:06:32.634Z,4.10
2023-03-22T07:08:59.428Z,5.95
2023-03-22T07:11:26.508Z,4.30
2023-03-22T07:13:54.099Z,3.80
2023-03-22T07:16:21.159Z,4.45
2023-03-22T07:18:48.412Z,4.25
2023-03-22T07:21:15.441Z,5.15
2023-03-22T07:23:42.108Z,3.65
2023-03-22T07:26:08.658Z,3.53
2023-03-22T07:28:35.520Z,3.67
2023-03-22T07:31:07.917Z,4.03
2023-03-22T07:33:34.455Z,3.75
2023-03-22T07:36:01.033Z,3.10
2023-03-22T07:38:28.982Z,4.30
2023-03-22T07:40:55.915Z,3.75
2023-03-22T07:43:22.983Z,3.17
2023-03-22T07:45:50.558Z,4.57
2023-03-22T07:48:22.521Z,3.67
2023-03-22T07:50:49.604Z,3.58
2023-03-22T07:53:16.196Z,3.35
2023-03-22T07:55:42.815Z,4.38
2023-03-22T07:58:09.654Z,3.35
2023-03-22T08:00:36.398Z,3.75
2023-03-22T08:03:03.055Z,6.85
2023-03-22T08:05:29.684Z,6.35
2023-03-22T08:07:56.985Z,5.18
2023-03-22T08:10:23.764Z,4.07
2023-03-22T08:12:50.403Z,5.32
2023-03-22T08:15:17.113Z,4.63
2023-03-22T08:17:43.692Z,6.78
2023-03-22T08:20:12.213Z,4.63
2023-03-22T08:22:38.925Z,5.03
2023-03-22T08:25:05.836Z,6.35
2023-03-22T08:27:32.464Z,6.03
2023-03-22T08:29:59.085Z,6.78
2023-03-22T08:32:25.807Z,6.88
2023-03-22T08:34:52.814Z,6.55
2023-03-22T08:37:22.422Z,6.60
2023-03-22T08:39:48.919Z,8.23
2023-03-22T08:42:15.546Z,8.93
2023-03-22T08:44:42.099Z,6.30
2023-03-22T08:47:08.650Z,6.68
2023-03-22T08:49:35.705Z,6.80
2023-03-22T08:52:02.294Z,5.82
2023-03-22T08:54:33.279Z,10.27
2023-03-22T08:56:59.879Z,13.17
2023-03-22T08:59:26.548Z,6.60
2023-03-22T09:01:53.196Z,6.07
2023-03-22T09:04:21.761Z,5.82
2023-03-22T09:06:48.354Z,7.05
2023-03-22T09:09:14.955Z,7.68
2023-03-22T09:11:42.940Z,6.38
2023-03-22T09:14:10.503Z,7.57
2023-03-22T09:16:37.298Z,8.55
2023-03-22T09:19:04.253Z,6.13
2023-03-22T09:21:31.465Z,6.38
2023-03-22T09:23:58.075Z,5.78
2023-03-22T09:26:25.665Z,5.50
2023-03-22T09:28:52.367Z,5.72
2023-03-22T09:31:20.546Z,6.32
2023-03-22T09:33:47.904Z,5.47
2023-03-22T09:36:15.863Z,6.28
2023-03-22T09:38:42.485Z,6.90
2023-03-22T09:41:13.704Z,6.90
2023-03-22T09:43:43.250Z,6.53
2023-03-22T09:46:43.304Z,7.60
2023-03-22T09:49:17.032Z,5.72
2023-03-22T09:51:51.554Z,6.95
2023-03-22T09:54:19.635Z,7.43
2023-03-22T09:56:51.709Z,7.00
2023-03-22T09:59:25.606Z,7.97
2023-03-22T10:01:57.462Z,8.98
2023-03-22T10:04:45.481Z,7.47
2023-03-22T10:07:30.660Z,6.43
2023-03-22T10:10:20.279Z,6.35
2023-03-22T10:12:54.176Z,6.78
2023-03-22T10:15:42.263Z,9.63
2023-03-22T10:18:13.896Z,8.32
2023-03-22T10:20:59.299Z,7.05
2023-03-22T10:23:39.516Z,10.02
2023-03-22T10:26:08.008Z,8.45
2023-03-22T10:28:34.476Z,8.15
2023-03-22T10:31:02.258Z,7.30
2023-03-22T10:33:38.740Z,12.40
2023-03-22T10:36:10.736Z,10.57
2023-03-22T10:38:43.820Z,9.43
2023-03-22T10:41:10.602Z,8.55
2023-03-22T10:43:38.520Z,9.05
2023-03-22T10:46:07.758Z,7.60
2023-03-22T10:48:45.786Z,11.65
2023-03-22T10:51:26.550Z,7.72
2023-03-22T10:53:55.223Z,9.52
2023-03-22T10:56:21.990Z,7.93
2023-03-22T10:58:49.786Z,9.82
2023-03-22T11:01:41.890Z,6.97
2023-03-22T11:04:15.677Z,8.95
2023-03-22T11:06:56.179Z,11.65
2023-03-22T11:09:24.369Z,12.50
2023-03-22T11:11:59.499Z,8.55
2023-03-22T11:14:42.410Z,9.68
2023-03-22T11:17:17.089Z,8.65
2023-03-22T11:19:59.500Z,6.95
2023-03-22T11:22:33.348Z,7.10
2023-03-22T11:25:00.859Z,8.10
2023-03-22T11:27:33.074Z,6.03
2023-03-22T11:30:24.880Z,6.32
2023-03-22T11:33:09.301Z,7.22
2023-03-22T11:35:38.655Z,6.57
2023-03-22T11:38:05.638Z,5.78
2023-03-22T11:40:36.708Z,4.97
2023-03-22T11:43:24.420Z,5.22
2023-03-22T11:45:54.867Z,4.20
2023-03-22T11:48:30.271Z,3.92
2023-03-22T11:51:05.738Z,4.28
2023-03-22T11:53:33.539Z,5.60
2023-03-22T11:56:00.347Z,4.97
2023-03-22T11:58:27.153Z,4.32
2023-03-22T12:00:59.406Z,4.28
2023-03-22T12:03:29.730Z,4.15
2023-03-22T12:05:57.298Z,4.10
2023-03-22T12:08:30.119Z,4.88
2023-03-22T12:11:07.156Z,4.13
2023-03-22T12:13:46.954Z,3.95
2023-03-22T12:16:16.006Z,3.50
2023-03-22T12:19:19.582Z,3.50
2023-03-22T12:21:46.409Z,3.85
2023-03-22T12:24:30.816Z,3.72
2023-03-22T12:27:04.423Z,3.70
2023-03-22T12:29:31.773Z,3.90
2023-03-22T12:32:07.159Z,3.40
2023-03-22T12:34:42.441Z,3.50
2023-03-22T12:37:14.554Z,3.42
2023-03-22T12:39:46.185Z,3.63
2023-03-22T12:42:22.083Z,3.05
2023-03-22T12:45:04.246Z,3.13
2023-03-22T12:47:46.505Z,3.92
2023-03-22T12:50:20.925Z,2.58
2023-03-22T12:52:49.897Z,2.65
2023-03-22T12:55:27.207Z,3.78
2023-03-22T12:57:54.806Z,2.47
2023-03-22T13:00:46.436Z,2.88
2023-03-22T13:03:16.242Z,2.60
2023-03-22T13:05:45.402Z,2.53
2023-03-22T13:08:12.182Z,2.70
2023-03-22T13:10:47.175Z,3.25
2023-03-22T13:13:23.295Z,4.95
2023-03-22T13:15:55.642Z,2.50
2023-03-22T13:18:40.196Z,2.55
2023-03-22T13:21:19.939Z,2.45
2023-03-22T13:24:15.808Z,2.28
2023-03-22T13:26:52.472Z,2.38
2023-03-22T13:29:24.707Z,2.20
2023-03-22T13:31:51.422Z,1.83
2023-03-22T13:34:32.993Z,2.17
2023-03-22T13:37:01.532Z,2.15
2023-03-22T13:39:34.709Z,1.90
2023-03-22T13:42:07.000Z,2.00
2023-03-22T13:44:39.363Z,2.83
2023-03-22T13:47:44.618Z,2.10
2023-03-22T13:50:19.295Z,2.22
2023-03-22T13:52:53.460Z,2.22
2023-03-22T13:55:54.289Z,2.42
2023-03-22T13:58:45.679Z,3.17
2023-03-22T14:01:37.173Z,2.83
2023-03-22T14:04:11.398Z,3.20
2023-03-22T14:07:08.907Z,2.40
2023-03-22T14:09:53.423Z,2.10
2023-03-22T14:12:25.239Z,3.00
2023-03-22T14:17:34.497Z,2.00
2023-03-22T14:20:02.126Z,3.50
